Volcan De Tamasite — ECFE — position and weather

sailwx.info

Track history (hours):
 
Tides and Currents Weather Stations Pressure Air Temp Water Temp Dewpoint Dewpoint Depression Visibility Wind Speed Wind Dir Waves Ship Positions

Volcan De Tamasite

Last reported at 2016-Jun-25 01:21 UTC. Time now 2016-Jun-28 08:00 UTC.
Position N 35°36' W 002°58'.

Length 141 m; draft 5.2 m.

Type: Passenger vessel. MMSI: 224093000.

Date/timePositionNaut miles runAvg speedWind from/ knotsBaromVisibWave heightAir tempDewpointWater temp
2016-Jun-25 01:21N 35°36' W 002°58'78 2.5
2016-Jun-23 18:31N 36°50' W 002°28'0 0.0
2016-Jun-23 17:10N 36°50' W 002°28'0 0.0
2016-Jun-23 16:19N 36°50' W 002°28'0 0.0
2016-Jun-23 15:29N 36°50' W 002°28'0 0.0
2016-Jun-23 14:32N 36°50' W 002°28'0 0.0
2016-Jun-23 13:28N 36°50' W 002°28'0 0.0
2016-Jun-23 12:30N 36°50' W 002°28'0 0.0
2016-Jun-23 11:27N 36°50' W 002°28'0 0.0
2016-Jun-23 10:25N 36°50' W 002°28'0 0.0
2016-Jun-23 09:07N 36°50' W 002°28'0 0.0
2016-Jun-23 08:30N 36°50' W 002°28'0 0.0
2016-Jun-23 07:26N 36°50' W 002°28'96 3.0
2016-Jun-21 23:28N 35°16' W 002°55'0 0.2
2016-Jun-21 22:31N 35°16' W 002°56'0 0.0
2016-Jun-21 21:20N 35°16' W 002°56'0 0.0
2016-Jun-21 20:09N 35°16' W 002°56'0 0.0
2016-Jun-21 19:31N 35°16' W 002°56'0 0.0
2016-Jun-21 18:14N 35°16' W 002°56'0 0.0
2016-Jun-21 17:30N 35°16' W 002°56'35 6.5
2016-Jun-21 12:11N 35°50' W 002°45'3622.2
2016-Jun-21 10:33N 36°25' W 002°35'2121.5
2016-Jun-21 09:33N 36°46' W 002°29'4 4.0
2016-Jun-21 08:30N 36°50' W 002°28'0 0.0
2016-Jun-21 07:33N 36°50' W 002°28'0 0.0
2016-Jun-21 06:33N 36°50' W 002°28'3 1.4
2016-Jun-21 04:34N 36°47' W 002°28'1818.2
2016-Jun-21 03:34N 36°30' W 002°34'1918.5
2016-Jun-21 02:34N 36°11' W 002°38'2416.8
2016-Jun-21 01:09N 35°49' W 002°46'1117.9
2016-Jun-21 00:32N 35°38' W 002°49'  
Track history (hours):
 
Tides and Currents Weather Stations Pressure Air Temp Water Temp Dewpoint Dewpoint Depression Visibility Wind Speed Wind Dir Waves Ship Positions

Volcan De Tamasite

Last reported at 2016-Jun-25 01:21 UTC. Time now 2016-Jun-28 08:00 UTC.
Position N 35°36' W 002°58'.

Length 141 m; draft 5.2 m.

Type: Passenger vessel. MMSI: 224093000.

Date/timePositionNaut miles runAvg speedWind from/ knotsBaromVisibWave heightAir tempDewpointWater temp
2016-Jun-25 01:21N 35°36' W 002°58'78 2.5
2016-Jun-23 18:31N 36°50' W 002°28'0 0.0
2016-Jun-23 17:10N 36°50' W 002°28'0 0.0
2016-Jun-23 16:19N 36°50' W 002°28'0 0.0
2016-Jun-23 15:29N 36°50' W 002°28'0 0.0
2016-Jun-23 14:32N 36°50' W 002°28'0 0.0
2016-Jun-23 13:28N 36°50' W 002°28'0 0.0
2016-Jun-23 12:30N 36°50' W 002°28'0 0.0
2016-Jun-23 11:27N 36°50' W 002°28'0 0.0
2016-Jun-23 10:25N 36°50' W 002°28'0 0.0
2016-Jun-23 09:07N 36°50' W 002°28'0 0.0
2016-Jun-23 08:30N 36°50' W 002°28'0 0.0
2016-Jun-23 07:26N 36°50' W 002°28'96 3.0
2016-Jun-21 23:28N 35°16' W 002°55'0 0.2
2016-Jun-21 22:31N 35°16' W 002°56'0 0.0
2016-Jun-21 21:20N 35°16' W 002°56'0 0.0
2016-Jun-21 20:09N 35°16' W 002°56'0 0.0
2016-Jun-21 19:31N 35°16' W 002°56'0 0.0
2016-Jun-21 18:14N 35°16' W 002°56'0 0.0
2016-Jun-21 17:30N 35°16' W 002°56'35 6.5
2016-Jun-21 12:11N 35°50' W 002°45'3622.2
2016-Jun-21 10:33N 36°25' W 002°35'2121.5
2016-Jun-21 09:33N 36°46' W 002°29'4 4.0
2016-Jun-21 08:30N 36°50' W 002°28'0 0.0
2016-Jun-21 07:33N 36°50' W 002°28'0 0.0
2016-Jun-21 06:33N 36°50' W 002°28'3 1.4
2016-Jun-21 04:34N 36°47' W 002°28'1818.2
2016-Jun-21 03:34N 36°30' W 002°34'1918.5
2016-Jun-21 02:34N 36°11' W 002°38'2416.8
2016-Jun-21 01:09N 35°49' W 002°46'1117.9
2016-Jun-21 00:32N 35°38' W 002°49'  

Dump ship's entire track history